createdAt,value
2018-04-26T00:00:50.416Z,0
2018-04-26T00:01:49.776Z,0
2018-04-26T00:02:50.389Z,0
2018-04-26T00:03:49.769Z,0
2018-04-26T00:04:50.229Z,0
2018-04-26T00:05:50.259Z,0
2018-04-26T00:06:50.240Z,0
2018-04-26T00:07:50.289Z,0
2018-04-26T00:08:50.210Z,0
2018-04-26T00:09:50.063Z,0
2018-04-26T00:10:50.348Z,0
2018-04-26T00:11:50.073Z,0
2018-04-26T00:12:50.168Z,0
2018-04-26T00:13:50.302Z,0
2018-04-26T00:14:50.359Z,0
2018-04-26T00:15:50.289Z,0
2018-04-26T00:16:50.034Z,0
2018-04-26T00:17:49.441Z,0
2018-04-26T00:18:49.689Z,0
2018-04-26T00:19:49.932Z,0
2018-04-26T00:20:49.928Z,0
2018-04-26T00:21:49.718Z,0
2018-04-26T00:22:49.913Z,0
2018-04-26T00:23:49.636Z,0
2018-04-26T00:24:49.628Z,0
2018-04-26T00:25:49.624Z,0
2018-04-26T00:26:49.614Z,0
2018-04-26T00:27:49.867Z,0
2018-04-26T00:28:49.849Z,0
2018-04-26T00:29:49.846Z,0
2018-04-26T00:30:49.836Z,0
2018-04-26T00:31:49.835Z,0
2018-04-26T00:32:49.555Z,0
2018-04-26T00:33:49.544Z,0
2018-04-26T00:34:49.787Z,0
2018-04-26T00:35:49.776Z,0
2018-04-26T00:36:49.771Z,0
2018-04-26T00:37:49.769Z,0
2018-04-26T00:38:49.824Z,0
2018-04-26T00:39:49.749Z,0
2018-04-26T00:40:49.469Z,0
2018-04-26T00:41:49.473Z,0
2018-04-26T00:42:49.192Z,0
2018-04-26T00:43:49.184Z,0
2018-04-26T00:44:49.431Z,0
2018-04-26T00:45:49.419Z,0
2018-04-26T00:46:49.680Z,0
2018-04-26T00:47:49.142Z,0
2018-04-26T00:48:49.652Z,0
2018-04-26T00:49:49.380Z,0
2018-04-26T00:50:49.371Z,0
2018-04-26T00:51:49.622Z,0
2018-04-26T00:52:49.093Z,0
2018-04-26T00:53:49.339Z,0
2018-04-26T00:54:49.589Z,0
2018-04-26T00:55:49.327Z,0
2018-04-26T00:56:49.567Z,0
2018-04-26T00:57:49.304Z,0
2018-04-26T00:58:49.291Z,0
2018-04-26T00:59:49.277Z,0
2018-04-26T01:00:49.272Z,0
2018-04-26T01:01:49.595Z,0
2018-04-26T01:02:49.003Z,0
2018-04-26T01:03:49.521Z,0
2018-04-26T01:04:49.241Z,0
2018-04-26T01:05:49.227Z,0
2018-04-26T01:06:48.955Z,0
2018-04-26T01:07:49.490Z,0
2018-04-26T01:08:49.202Z,0
2018-04-26T01:09:49.450Z,0
2018-04-26T01:10:49.193Z,0
2018-04-26T01:11:49.436Z,0
2018-04-26T01:12:49.163Z,0
2018-04-26T01:13:48.893Z,0
2018-04-26T01:14:48.878Z,0
2018-04-26T01:15:49.382Z,0
2018-04-26T01:16:49.114Z,0
2018-04-26T01:17:49.109Z,0
2018-04-26T01:18:49.368Z,0
2018-04-26T01:19:49.086Z,0
2018-04-26T01:20:49.073Z,0
2018-04-26T01:21:49.093Z,0
2018-04-26T01:22:49.050Z,0
2018-04-26T01:23:49.052Z,0
2018-04-26T01:24:49.268Z,0
2018-04-26T01:25:49.280Z,0
2018-04-26T01:26:49.012Z,0
2018-04-26T01:27:49.268Z,0
2018-04-26T01:28:49.264Z,0
2018-04-26T01:29:48.724Z,0
2018-04-26T01:30:49.226Z,0
2018-04-26T01:31:48.954Z,0
2018-04-26T01:32:49.207Z,0
2018-04-26T01:33:48.679Z,0
2018-04-26T01:34:48.926Z,0
2018-04-26T01:35:48.930Z,0
2018-04-26T01:36:49.169Z,0
2018-04-26T01:37:48.639Z,0
2018-04-26T01:38:49.166Z,0
2018-04-26T01:39:48.878Z,0
2018-04-26T01:40:48.862Z,0
2018-04-26T01:41:49.112Z,0
2018-04-26T01:42:48.837Z,0
2018-04-26T01:43:48.832Z,0
2018-04-26T01:44:48.824Z,0
2018-04-26T01:45:48.811Z,0
2018-04-26T01:46:49.081Z,0
2018-04-26T01:47:48.786Z,0
2018-04-26T01:48:48.518Z,0
2018-04-26T01:49:48.766Z,0
2018-04-26T01:50:49.011Z,0
2018-04-26T01:51:48.747Z,0
2018-04-26T01:52:48.739Z,0
2018-04-26T01:53:48.981Z,0
2018-04-26T01:54:48.455Z,0
2018-04-26T01:55:48.960Z,0
2018-04-26T01:56:48.432Z,0
2018-04-26T01:57:48.426Z,0
2018-04-26T01:58:48.682Z,0
2018-04-26T01:59:48.668Z,0
2018-04-26T02:00:48.392Z,0
2018-04-26T02:01:48.378Z,0
2018-04-26T02:02:48.887Z,0
2018-04-26T02:03:49.077Z,0
2018-04-26T02:04:48.862Z,0
2018-04-26T02:05:48.597Z,0
2018-04-26T02:06:48.587Z,0
2018-04-26T02:07:48.573Z,0
2018-04-26T02:08:48.564Z,0
2018-04-26T02:09:48.330Z,0
2018-04-26T02:10:48.282Z,0
2018-04-26T02:11:48.273Z,0
2018-04-26T02:12:48.267Z,0
2018-04-26T02:13:48.517Z,0
2018-04-26T02:14:48.759Z,0
2018-04-26T02:15:48.759Z,0
2018-04-26T02:16:48.694Z,0
2018-04-26T02:17:48.465Z,0
2018-04-26T02:18:48.482Z,0
2018-04-26T02:19:48.709Z,0
2018-04-26T02:20:48.435Z,0
2018-04-26T02:21:48.429Z,0
2018-04-26T02:22:48.416Z,0
2018-04-26T02:23:48.688Z,0
2018-04-26T02:24:48.134Z,0
2018-04-26T02:25:48.647Z,0
2018-04-26T02:26:48.378Z,0
2018-04-26T02:27:48.614Z,0
2018-04-26T02:28:48.355Z,0
2018-04-26T02:29:48.611Z,0
2018-04-26T02:30:48.095Z,0
2018-04-26T02:31:48.324Z,0
2018-04-26T02:32:48.571Z,0
2018-04-26T02:33:48.314Z,0
2018-04-26T02:34:48.557Z,0
2018-04-26T02:35:48.618Z,0
2018-04-26T02:36:48.280Z,0
2018-04-26T02:37:48.259Z,0
2018-04-26T02:38:48.255Z,0
2018-04-26T02:39:48.491Z,0
2018-04-26T02:40:48.183Z,0
2018-04-26T02:41:47.965Z,0
2018-04-26T02:42:48.478Z,0
2018-04-26T02:43:48.189Z,0
2018-04-26T02:44:48.439Z,0
2018-04-26T02:45:48.444Z,0
2018-04-26T02:46:47.908Z,0
2018-04-26T02:47:48.167Z,0
2018-04-26T02:48:48.136Z,0
2018-04-26T02:49:48.461Z,0
2018-04-26T02:50:48.123Z,0
2018-04-26T02:51:48.360Z,0
2018-04-26T02:52:47.833Z,0
2018-04-26T02:53:48.078Z,0
2018-04-26T02:54:48.343Z,0
2018-04-26T02:55:48.065Z,0
2018-04-26T02:56:47.792Z,0
2018-04-26T02:57:48.518Z,0
2018-04-26T02:58:48.296Z,0
2018-04-26T02:59:48.013Z,0
2018-04-26T03:00:47.758Z,0
2018-04-26T03:01:47.998Z,0
2018-04-26T03:02:48.209Z,0
2018-04-26T03:03:48.260Z,0
2018-04-26T03:04:47.445Z,0
2018-04-26T03:05:47.946Z,0
2018-04-26T03:06:48.205Z,0
2018-04-26T03:07:47.683Z,0
2018-04-26T03:08:47.663Z,0
2018-04-26T03:09:47.651Z,0
2018-04-26T03:10:47.636Z,0
2018-04-26T03:11:47.901Z,0
2018-04-26T03:12:48.131Z,0
2018-04-26T03:13:47.861Z,0
2018-04-26T03:14:47.596Z,0
2018-04-26T03:15:47.591Z,0
2018-04-26T03:16:48.088Z,0
2018-04-26T03:17:47.821Z,0
2018-04-26T03:18:47.547Z,0
2018-04-26T03:19:48.067Z,0
2018-04-26T03:20:48.049Z,0
2018-04-26T03:21:47.779Z,0
2018-04-26T03:22:48.023Z,0
2018-04-26T03:23:48.010Z,0
2018-04-26T03:24:47.738Z,4
2018-04-26T03:25:47.728Z,4
2018-04-26T03:26:47.722Z,0
2018-04-26T03:27:47.452Z,4
2018-04-26T03:28:47.695Z,4
2018-04-26T03:29:48.186Z,4
2018-04-26T03:30:47.935Z,4
2018-04-26T03:31:47.674Z,8
2018-04-26T03:32:47.396Z,8
2018-04-26T03:33:47.386Z,8
2018-04-26T03:34:47.646Z,8
2018-04-26T03:35:47.625Z,8
2018-04-26T03:36:47.613Z,12
2018-04-26T03:37:47.597Z,12
2018-04-26T03:38:47.867Z,16
2018-04-26T03:39:47.644Z,12
2018-04-26T03:40:47.574Z,12
2018-04-26T03:41:47.309Z,12
2018-04-26T03:42:47.806Z,8
2018-04-26T03:43:47.281Z,20
2018-04-26T03:44:47.265Z,24
2018-04-26T03:45:47.770Z,32
2018-04-26T03:46:47.497Z,48
2018-04-26T03:47:47.234Z,56
2018-04-26T03:48:47.738Z,80
2018-04-26T03:49:47.211Z,96
2018-04-26T03:50:47.728Z,104
2018-04-26T03:51:47.706Z,116
2018-04-26T03:52:47.696Z,132
2018-04-26T03:53:47.680Z,152
2018-04-26T03:54:47.422Z,172
2018-04-26T03:55:47.665Z,188
2018-04-26T03:56:47.650Z,204
2018-04-26T03:57:47.652Z,220
2018-04-26T03:58:47.449Z,236
2018-04-26T03:59:47.364Z,256
2018-04-26T04:00:47.096Z,280
2018-04-26T04:01:46.840Z,304
2018-04-26T04:02:47.587Z,328
2018-04-26T04:03:47.584Z,352
2018-04-26T04:04:47.048Z,380
2018-04-26T04:05:47.298Z,400
2018-04-26T04:06:47.542Z,432
2018-04-26T04:07:47.536Z,436
2018-04-26T04:08:47.534Z,472
2018-04-26T04:09:47.511Z,508
2018-04-26T04:10:47.237Z,540
2018-04-26T04:11:47.487Z,600
2018-04-26T04:12:47.222Z,660
2018-04-26T04:13:47.459Z,720
2018-04-26T04:14:47.202Z,728
2018-04-26T04:15:47.440Z,740
2018-04-26T04:16:47.189Z,788
2018-04-26T04:17:47.180Z,840
2018-04-26T04:18:47.429Z,920
2018-04-26T04:19:47.139Z,1008
2018-04-26T04:20:47.390Z,1104
2018-04-26T04:21:47.473Z,1144
2018-04-26T04:22:47.108Z,1200
2018-04-26T04:23:47.114Z,1344
2018-04-26T04:24:47.341Z,1568
2018-04-26T04:25:46.557Z,1612
2018-04-26T04:26:47.063Z,1644
2018-04-26T04:27:46.798Z,1704
2018-04-26T04:28:47.298Z,1852
2018-04-26T04:29:47.285Z,2028
2018-04-26T04:30:47.018Z,2052
2018-04-26T04:31:47.266Z,1712
2018-04-26T04:32:47.219Z,1504
2018-04-26T04:33:46.725Z,1540
2018-04-26T04:34:46.972Z,1656
2018-04-26T04:35:47.222Z,1364
2018-04-26T04:36:46.694Z,1328
2018-04-26T04:37:46.729Z,1252
2018-04-26T04:38:47.207Z,1180
2018-04-26T04:39:46.947Z,1292
2018-04-26T04:40:46.907Z,1332
2018-04-26T04:41:46.904Z,1404
2018-04-26T04:42:46.904Z,1712
2018-04-26T04:43:47.132Z,2376
2018-04-26T04:44:46.864Z,2308
2018-04-26T04:45:46.597Z,1864
2018-04-26T04:46:47.102Z,1852
2018-04-26T04:47:46.831Z,1944
2018-04-26T04:48:46.819Z,2308
2018-04-26T04:49:46.810Z,2732
2018-04-26T04:50:47.259Z,2628
2018-04-26T04:51:46.803Z,2188
2018-04-26T04:52:47.038Z,1792
2018-04-26T04:53:47.023Z,1808
2018-04-26T04:54:46.752Z,2156
2018-04-26T04:55:46.487Z,2156
2018-04-26T04:56:46.472Z,2780
2018-04-26T04:57:46.466Z,3476
2018-04-26T04:58:46.977Z,3516
2018-04-26T04:59:46.957Z,3892
2018-04-26T05:00:46.971Z,4528
2018-04-26T05:01:46.941Z,4304
2018-04-26T05:02:46.939Z,3700
2018-04-26T05:03:46.983Z,3140
2018-04-26T05:04:46.899Z,3036
2018-04-26T05:05:46.648Z,3184
2018-04-26T05:06:46.892Z,3384
2018-04-26T05:07:46.359Z,3944
2018-04-26T05:08:46.090Z,4428
2018-04-26T05:09:46.597Z,4340
2018-04-26T05:10:46.326Z,4804
2018-04-26T05:11:46.583Z,5464
2018-04-26T05:12:46.821Z,4540
2018-04-26T05:13:46.970Z,4020
2018-04-26T05:14:46.558Z,5064
2018-04-26T05:15:46.532Z,5912
2018-04-26T05:16:46.526Z,5564
2018-04-26T05:17:46.507Z,5220
2018-04-26T05:18:46.503Z,6060
2018-04-26T05:19:47.059Z,6852
2018-04-26T05:20:46.756Z,6460
2018-04-26T05:21:46.723Z,6804
2018-04-26T05:22:46.720Z,6948
2018-04-26T05:23:46.192Z,7200
2018-04-26T05:24:46.663Z,7584
2018-04-26T05:25:47.037Z,7212
2018-04-26T05:26:46.672Z,6392
2018-04-26T05:27:46.680Z,5908
2018-04-26T05:28:46.875Z,5980
2018-04-26T05:29:46.389Z,6168
2018-04-26T05:30:46.654Z,6112
2018-04-26T05:31:46.538Z,6652
2018-04-26T05:32:46.357Z,6516
2018-04-26T05:33:46.623Z,5760
2018-04-26T05:34:46.613Z,5400
2018-04-26T05:35:46.076Z,5512
2018-04-26T05:36:46.325Z,5736
2018-04-26T05:37:46.271Z,5380
2018-04-26T05:38:46.300Z,6060
2018-04-26T05:39:46.544Z,7112
2018-04-26T05:40:46.513Z,6244
2018-04-26T05:41:46.011Z,4836
2018-04-26T05:42:46.520Z,5380
2018-04-26T05:43:46.507Z,5068
2018-04-26T05:44:46.256Z,5056
2018-04-26T05:45:46.236Z,5768
2018-04-26T05:46:45.962Z,4632
2018-04-26T05:47:46.494Z,3640
2018-04-26T05:48:46.480Z,4396
2018-04-26T05:49:46.457Z,4860
2018-04-26T05:50:46.453Z,3360
2018-04-26T05:51:46.189Z,3068
2018-04-26T05:52:46.420Z,3372
2018-04-26T05:53:46.160Z,3992
2018-04-26T05:54:46.402Z,5016
2018-04-26T05:55:46.599Z,5788
2018-04-26T05:56:46.128Z,6400
2018-04-26T05:57:46.116Z,6248
2018-04-26T05:58:46.203Z,6872
2018-04-26T05:59:45.839Z,6584
2018-04-26T06:00:46.088Z,5648
2018-04-26T06:01:45.850Z,6088
2018-04-26T06:02:46.328Z,6928
2018-04-26T06:03:46.542Z,6492
2018-04-26T06:04:46.335Z,6004
2018-04-26T06:05:46.302Z,6156
2018-04-26T06:06:46.028Z,6424
2018-04-26T06:07:46.280Z,7168
2018-04-26T06:08:46.268Z,7596
2018-04-26T06:09:46.279Z,7304
2018-04-26T06:10:46.250Z,7004
2018-04-26T06:11:45.930Z,6804
2018-04-26T06:12:45.977Z,6400
2018-04-26T06:13:45.962Z,6484
2018-04-26T06:14:45.955Z,6408
2018-04-26T06:15:46.143Z,6472
2018-04-26T06:16:46.192Z,6672
2018-04-26T06:17:45.944Z,7000
2018-04-26T06:18:45.930Z,6320
2018-04-26T06:19:46.178Z,6504
2018-04-26T06:21:17.999Z,6200
2018-04-26T06:21:45.887Z,6868
2018-04-26T06:22:45.623Z,8348
2018-04-26T06:23:45.884Z,9608
2018-04-26T06:24:46.117Z,9888
2018-04-26T06:25:45.846Z,10928
2018-04-26T06:26:46.109Z,9488
2018-04-26T06:27:45.589Z,10156
2018-04-26T06:28:46.156Z,6368
2018-04-26T06:29:46.064Z,9416
2018-04-26T06:30:45.821Z,9904
2018-04-26T06:31:45.793Z,10372
2018-04-26T06:32:45.781Z,9116
2018-04-26T06:33:46.036Z,6680
2018-04-26T06:34:45.782Z,8920
2018-04-26T06:35:45.762Z,11320
2018-04-26T06:36:45.523Z,10828
2018-04-26T06:37:45.735Z,11072
2018-04-26T06:38:45.466Z,13364
2018-04-26T06:39:45.714Z,6520
2018-04-26T06:40:45.730Z,11500
2018-04-26T06:41:45.978Z,8396
2018-04-26T06:42:45.944Z,15432
2018-04-26T06:43:45.684Z,7972
2018-04-26T06:44:45.440Z,16448
2018-04-26T06:45:45.922Z,32672
2018-04-26T06:46:45.925Z,47872
2018-04-26T06:47:46.021Z,46048
2018-04-26T06:48:45.636Z,43520
2018-04-26T06:49:45.847Z,45504
2018-04-26T06:50:45.900Z,42016
2018-04-26T06:51:45.874Z,12380
2018-04-26T06:52:45.605Z,38848
2018-04-26T06:53:45.331Z,37632
2018-04-26T06:54:45.593Z,3812
2018-04-26T06:55:45.866Z,38688
2018-04-26T06:56:45.829Z,40800
2018-04-26T06:57:45.639Z,42048
2018-04-26T06:58:45.556Z,40864
2018-04-26T06:59:45.820Z,38080
2018-04-26T07:00:45.556Z,7016
2018-04-26T07:01:45.540Z,36960
2018-04-26T07:02:45.531Z,40448
2018-04-26T07:03:45.781Z,41632
2018-04-26T07:04:45.771Z,39648
2018-04-26T07:05:45.974Z,13468
2018-04-26T07:06:45.785Z,7316
2018-04-26T07:07:45.246Z,40192
2018-04-26T07:08:45.753Z,4212
2018-04-26T07:09:45.491Z,37248
2018-04-26T07:10:45.748Z,43552
2018-04-26T07:11:45.619Z,46048
2018-04-26T07:12:45.453Z,44480
2018-04-26T07:13:45.749Z,42464
2018-04-26T07:14:45.721Z,33056
2018-04-26T07:15:45.458Z,14504
2018-04-26T07:16:45.454Z,5300
2018-04-26T07:17:45.189Z,9124
2018-04-26T07:18:45.185Z,7904
2018-04-26T07:19:45.438Z,10208
2018-04-26T07:20:45.439Z,8988
2018-04-26T07:21:45.464Z,6884
2018-04-26T07:22:45.426Z,10996
2018-04-26T07:23:45.675Z,10772
2018-04-26T07:24:45.689Z,7380
2018-04-26T07:25:45.423Z,6932
2018-04-26T07:26:45.665Z,11064
2018-04-26T07:27:45.406Z,10024
2018-04-26T07:28:45.147Z,9472
2018-04-26T07:29:45.655Z,9644
2018-04-26T07:30:45.662Z,9072
2018-04-26T07:31:45.388Z,8732
2018-04-26T07:32:45.648Z,7876
2018-04-26T07:33:45.116Z,7292
2018-04-26T07:34:45.423Z,7192
2018-04-26T07:35:45.387Z,9472
2018-04-26T07:36:45.642Z,8820
2018-04-26T07:37:45.364Z,7608
2018-04-26T07:38:45.101Z,5804
2018-04-26T07:39:45.354Z,5220
2018-04-26T07:40:45.095Z,5808
2018-04-26T07:41:45.342Z,6372
2018-04-26T07:42:45.345Z,7656
2018-04-26T07:43:45.334Z,7752
2018-04-26T07:44:45.555Z,7968
2018-04-26T07:45:45.587Z,7308
2018-04-26T07:46:45.320Z,4816
2018-04-26T07:47:45.314Z,5228
2018-04-26T07:48:45.045Z,4336
2018-04-26T07:49:45.300Z,3748
2018-04-26T07:50:45.548Z,4264
2018-04-26T07:51:45.280Z,5780
2018-04-26T07:52:45.282Z,5000
2018-04-26T07:53:45.532Z,5708
2018-04-26T07:54:45.523Z,5940
2018-04-26T07:55:45.259Z,7404
2018-04-26T07:56:45.248Z,10024
2018-04-26T07:57:45.519Z,11424
2018-04-26T07:58:45.496Z,10280
2018-04-26T07:59:44.970Z,11828
2018-04-26T08:00:45.480Z,10060
2018-04-26T08:01:45.662Z,9740
2018-04-26T08:02:45.458Z,9848
2018-04-26T08:03:45.194Z,10940
2018-04-26T08:04:45.442Z,11704
2018-04-26T08:05:45.437Z,9824
2018-04-26T08:06:45.431Z,10344
2018-04-26T08:07:45.163Z,12156
2018-04-26T08:08:45.159Z,12020
2018-04-26T08:09:45.413Z,11272
2018-04-26T08:10:45.436Z,10852
2018-04-26T08:11:45.725Z,10948
2018-04-26T08:12:45.143Z,10928
2018-04-26T08:13:45.124Z,11820
2018-04-26T08:14:45.116Z,10504
2018-04-26T08:15:45.363Z,9644
2018-04-26T08:16:45.374Z,8460
2018-04-26T08:17:45.351Z,8112
2018-04-26T08:18:45.336Z,7700
2018-04-26T08:19:45.389Z,7904
2018-04-26T08:20:44.805Z,8716
2018-04-26T08:21:45.057Z,9112
2018-04-26T08:22:45.047Z,10296
2018-04-26T08:23:45.292Z,10708
2018-04-26T08:24:45.358Z,9360
2018-04-26T08:25:44.760Z,8680
2018-04-26T08:26:45.016Z,9120
2018-04-26T08:27:44.745Z,9692
2018-04-26T08:28:44.995Z,9116
2018-04-26T08:29:44.989Z,8960
2018-04-26T08:30:45.254Z,10412
2018-04-26T08:31:44.969Z,11352
2018-04-26T08:32:45.227Z,10140
2018-04-26T08:33:45.232Z,7968
2018-04-26T08:34:44.944Z,6020
2018-04-26T08:35:44.936Z,5260
2018-04-26T08:36:44.939Z,4900
2018-04-26T08:37:44.659Z,5228
2018-04-26T08:38:45.171Z,3732
2018-04-26T08:39:44.384Z,3076
2018-04-26T08:40:44.889Z,4112
2018-04-26T08:41:44.890Z,6640
2018-04-26T08:42:45.132Z,8720
2018-04-26T08:43:45.121Z,7972
2018-04-26T08:44:45.120Z,5576
2018-04-26T08:45:44.966Z,5068
2018-04-26T08:46:45.175Z,7624
2018-04-26T08:47:45.092Z,10668
2018-04-26T08:48:45.081Z,12412
2018-04-26T08:49:45.067Z,11180
2018-04-26T08:50:44.795Z,8632
2018-04-26T08:51:45.052Z,7032
2018-04-26T08:52:44.519Z,5720
2018-04-26T08:53:45.043Z,6456
2018-04-26T08:54:44.762Z,6408
2018-04-26T08:55:44.752Z,6252
2018-04-26T08:56:45.016Z,7080
2018-04-26T08:57:44.997Z,8340
2018-04-26T08:58:44.722Z,9176
2018-04-26T08:59:44.817Z,7964
2018-04-26T09:00:44.965Z,6108
2018-04-26T09:01:44.949Z,5144
2018-04-26T09:02:44.690Z,5020
2018-04-26T09:03:44.681Z,4200
2018-04-26T09:04:44.927Z,4684
2018-04-26T09:05:44.658Z,6240
2018-04-26T09:06:44.798Z,7036
2018-04-26T09:07:44.642Z,7792
2018-04-26T09:08:44.887Z,8552
2018-04-26T09:09:44.646Z,9488
2018-04-26T09:10:44.869Z,9892
2018-04-26T09:11:44.863Z,10000
2018-04-26T09:12:44.592Z,9372
2018-04-26T09:13:44.589Z,9544
2018-04-26T09:14:44.579Z,10100
2018-04-26T09:15:44.668Z,10440
2018-04-26T09:16:44.815Z,9836
2018-04-26T09:17:44.808Z,8176
2018-04-26T09:18:44.543Z,8144
2018-04-26T09:19:44.786Z,9508
2018-04-26T09:20:44.531Z,10192
2018-04-26T09:21:44.509Z,12088
2018-04-26T09:22:44.512Z,14132
2018-04-26T09:23:44.750Z,13352
2018-04-26T09:24:44.224Z,12080
2018-04-26T09:25:44.751Z,11492
2018-04-26T09:26:44.472Z,11800
2018-04-26T09:27:44.458Z,11908
2018-04-26T09:28:44.706Z,11872
2018-04-26T09:29:44.441Z,11540
2018-04-26T09:30:44.425Z,11932
2018-04-26T09:31:44.421Z,13320
2018-04-26T09:32:44.414Z,12808
2018-04-26T09:33:44.409Z,12600
2018-04-26T09:34:44.722Z,13996
2018-04-26T09:35:44.388Z,14504
2018-04-26T09:36:44.632Z,14488
2018-04-26T09:37:44.368Z,13848
2018-04-26T09:38:44.861Z,13484
2018-04-26T09:39:44.090Z,13924
2018-04-26T09:40:44.606Z,13292
2018-04-26T09:41:44.331Z,12104
2018-04-26T09:42:44.325Z,10728
2018-04-26T09:43:44.315Z,9616
2018-04-26T09:44:44.050Z,8960
2018-04-26T09:45:44.761Z,8552
2018-04-26T09:46:44.032Z,9904
2018-04-26T09:47:44.026Z,11284
2018-04-26T09:48:44.578Z,11848
2018-04-26T09:49:44.522Z,12284
2018-04-26T09:50:44.006Z,11108
2018-04-26T09:51:44.252Z,10452
2018-04-26T09:52:44.484Z,7944
2018-04-26T09:53:44.232Z,6968
2018-04-26T09:54:44.486Z,7464
2018-04-26T09:55:44.479Z,8624
2018-04-26T09:56:44.207Z,9680
2018-04-26T09:57:44.205Z,11408
2018-04-26T09:58:44.635Z,11828
2018-04-26T09:59:44.186Z,11812
2018-04-26T10:00:44.448Z,9908
2018-04-26T10:01:44.678Z,9500
2018-04-26T10:02:44.417Z,10216
2018-04-26T10:03:44.158Z,11544
2018-04-26T10:04:44.144Z,11152
2018-04-26T10:05:44.139Z,12404
2018-04-26T10:06:43.872Z,11796
2018-04-26T10:07:44.385Z,10960
2018-04-26T10:08:44.213Z,9140
2018-04-26T10:09:44.115Z,8328
2018-04-26T10:10:43.844Z,8160
2018-04-26T10:11:44.098Z,9120
2018-04-26T10:12:43.829Z,10928
2018-04-26T10:13:44.079Z,12616
2018-04-26T10:14:44.332Z,13676
2018-04-26T10:15:44.326Z,13784
2018-04-26T10:16:44.320Z,11828
2018-04-26T10:17:44.070Z,13036
2018-04-26T10:18:44.312Z,12804
2018-04-26T10:19:44.041Z,12512
2018-04-26T10:20:44.296Z,14008
2018-04-26T10:21:43.773Z,13492
2018-04-26T10:22:44.022Z,13980
2018-04-26T10:23:44.282Z,14964
2018-04-26T10:24:44.436Z,14856
2018-04-26T10:25:43.483Z,14384
2018-04-26T10:26:44.002Z,13676
2018-04-26T10:27:43.996Z,11892
2018-04-26T10:28:43.725Z,11720
2018-04-26T10:29:43.975Z,11312
2018-04-26T10:30:43.710Z,9464
2018-04-26T10:31:44.229Z,8296
2018-04-26T10:32:43.958Z,6328
2018-04-26T10:33:43.431Z,5740
2018-04-26T10:34:44.209Z,4712
2018-04-26T10:35:43.937Z,6372
2018-04-26T10:36:43.932Z,6820
2018-04-26T10:37:43.928Z,8084
2018-04-26T10:38:44.173Z,11052
2018-04-26T10:39:43.914Z,12360
2018-04-26T10:40:43.646Z,12924
2018-04-26T10:41:44.160Z,13408
2018-04-26T10:42:44.145Z,13708
2018-04-26T10:43:44.141Z,13432
2018-04-26T10:44:44.145Z,12880
2018-04-26T10:45:43.356Z,12360
2018-04-26T10:46:44.125Z,12824
2018-04-26T10:47:44.119Z,13108
2018-04-26T10:48:43.852Z,13560
2018-04-26T10:49:44.108Z,13260
2018-04-26T10:50:44.098Z,12608
2018-04-26T10:51:44.094Z,12960
2018-04-26T10:52:43.830Z,13240
2018-04-26T10:53:43.566Z,12820
2018-04-26T10:54:43.822Z,10948
2018-04-26T10:55:44.069Z,8608
2018-04-26T10:56:43.805Z,7776
2018-04-26T10:57:44.065Z,7012
2018-04-26T10:58:44.074Z,7376
2018-04-26T10:59:43.536Z,9008
2018-04-26T11:00:43.782Z,11220
2018-04-26T11:01:44.117Z,11756
2018-04-26T11:02:44.038Z,9388
2018-04-26T11:03:44.201Z,7324
2018-04-26T11:04:43.508Z,6912
2018-04-26T11:05:43.497Z,6076
2018-04-26T11:06:44.013Z,5180
2018-04-26T11:07:44.211Z,4908
2018-04-26T11:08:43.740Z,4644
2018-04-26T11:09:43.728Z,4424
2018-04-26T11:10:43.980Z,5032
2018-04-26T11:11:44.305Z,5180
2018-04-26T11:12:43.463Z,5236
2018-04-26T11:13:43.958Z,4996
2018-04-26T11:14:43.693Z,4468
2018-04-26T11:15:44.255Z,4568
2018-04-26T11:16:43.948Z,3140
2018-04-26T11:17:43.934Z,2660
2018-04-26T11:18:43.411Z,2660
2018-04-26T11:19:43.661Z,2964
2018-04-26T11:20:43.653Z,3960
2018-04-26T11:21:43.640Z,4972
2018-04-26T11:22:43.889Z,5376
2018-04-26T11:23:43.629Z,5384
2018-04-26T11:24:43.617Z,5408
2018-04-26T11:25:43.608Z,5924
2018-04-26T11:26:43.862Z,6936
2018-04-26T11:27:43.589Z,7888
2018-04-26T11:28:43.321Z,8868
2018-04-26T11:29:43.826Z,9644
2018-04-26T11:30:43.557Z,10392
2018-04-26T11:31:43.807Z,11148
2018-04-26T11:32:43.799Z,12100
2018-04-26T11:33:43.286Z,12616
2018-04-26T11:34:43.264Z,12816
2018-04-26T11:35:42.994Z,13036
2018-04-26T11:36:43.505Z,12108
2018-04-26T11:37:43.760Z,10344
2018-04-26T11:38:43.743Z,7644
2018-04-26T11:39:43.731Z,5364
2018-04-26T11:40:43.463Z,4004
2018-04-26T11:41:43.451Z,3428
2018-04-26T11:42:43.442Z,3228
2018-04-26T11:43:43.437Z,3156
2018-04-26T11:44:43.425Z,3120
2018-04-26T11:45:43.667Z,3100
2018-04-26T11:46:43.828Z,3084
2018-04-26T11:47:43.399Z,3056
2018-04-26T11:48:43.387Z,3032
2018-04-26T11:49:43.373Z,3016
2018-04-26T11:50:43.365Z,3032
2018-04-26T11:51:43.621Z,3044
2018-04-26T11:52:43.099Z,3072
2018-04-26T11:53:43.337Z,3132
2018-04-26T11:54:43.066Z,3296
2018-04-26T11:55:43.582Z,3540
2018-04-26T11:56:43.574Z,3908
2018-04-26T11:57:43.555Z,4244
2018-04-26T11:58:43.555Z,4364
2018-04-26T11:59:43.306Z,4476
2018-04-26T12:00:43.271Z,4668
2018-04-26T12:01:43.268Z,4852
2018-04-26T12:02:43.370Z,5012
2018-04-26T12:03:43.243Z,5408
2018-04-26T12:04:42.977Z,5568
2018-04-26T12:05:42.710Z,5544
2018-04-26T12:06:43.479Z,5772
2018-04-26T12:07:43.837Z,5680
2018-04-26T12:08:43.458Z,5872
2018-04-26T12:09:42.933Z,6576
2018-04-26T12:10:42.926Z,7664
2018-04-26T12:11:42.916Z,8420
2018-04-26T12:12:43.428Z,8688
2018-04-26T12:13:43.161Z,10588
2018-04-26T12:14:42.892Z,12548
2018-04-26T12:15:43.403Z,12816
2018-04-26T12:16:43.393Z,13268
2018-04-26T12:17:43.129Z,12828
2018-04-26T12:18:43.253Z,11964
2018-04-26T12:19:43.111Z,10608
2018-04-26T12:20:43.360Z,9732
2018-04-26T12:21:43.096Z,9716
2018-04-26T12:22:43.352Z,10984
2018-04-26T12:23:43.084Z,11224
2018-04-26T12:24:43.337Z,10368
2018-04-26T12:25:43.328Z,9028
2018-04-26T12:26:43.065Z,7720
2018-04-26T12:27:43.053Z,6132
2018-04-26T12:28:43.309Z,4664
2018-04-26T12:29:43.041Z,3628
2018-04-26T12:30:43.287Z,3988
2018-04-26T12:31:43.025Z,5492
2018-04-26T12:32:43.020Z,6404
2018-04-26T12:33:43.009Z,6204
2018-04-26T12:34:43.003Z,5452
2018-04-26T12:35:43.255Z,5052
2018-04-26T12:36:42.985Z,5664
2018-04-26T12:37:42.976Z,7756
2018-04-26T12:38:43.276Z,9556
2018-04-26T12:39:42.967Z,8692
2018-04-26T12:40:42.955Z,6896
2018-04-26T12:41:42.434Z,5444
2018-04-26T12:42:43.203Z,4092
2018-04-26T12:43:43.189Z,3160
2018-04-26T12:44:42.920Z,3236
2018-04-26T12:45:42.917Z,3968
2018-04-26T12:46:43.166Z,5068
2018-04-26T12:47:42.903Z,6456
2018-04-26T12:48:42.636Z,7336
2018-04-26T12:49:42.627Z,7184
2018-04-26T12:50:42.876Z,7060
2018-04-26T12:51:42.864Z,6572
2018-04-26T12:52:43.118Z,5848
2018-04-26T12:53:43.109Z,5144
2018-04-26T12:54:42.852Z,4908
2018-04-26T12:55:42.578Z,4968
2018-04-26T12:56:42.828Z,5624
2018-04-26T12:57:42.887Z,6032
2018-04-26T12:58:43.068Z,6576
2018-04-26T12:59:42.799Z,6876
2018-04-26T13:00:42.796Z,6580
2018-04-26T13:01:43.053Z,6208
2018-04-26T13:02:42.779Z,5944
2018-04-26T13:03:42.772Z,5472
2018-04-26T13:04:42.758Z,4268
2018-04-26T13:05:42.758Z,4044
2018-04-26T13:06:42.742Z,5724
2018-04-26T13:07:42.766Z,8160
2018-04-26T13:08:42.475Z,10716
2018-04-26T13:09:42.974Z,12132
2018-04-26T13:10:42.495Z,11912
2018-04-26T13:11:42.961Z,10352
2018-04-26T13:12:42.804Z,8912
2018-04-26T13:13:42.427Z,7056
2018-04-26T13:14:42.936Z,5264
2018-04-26T13:15:42.674Z,4000
2018-04-26T13:16:42.916Z,3224
2018-04-26T13:17:42.393Z,3008
2018-04-26T13:18:42.657Z,3284
2018-04-26T13:19:42.638Z,4120
2018-04-26T13:20:42.624Z,5464
2018-04-26T13:21:42.879Z,7200
2018-04-26T13:22:42.898Z,8936
2018-04-26T13:23:42.984Z,10112
2018-04-26T13:24:42.592Z,10528
2018-04-26T13:25:42.840Z,11116
2018-04-26T13:26:42.834Z,11936
2018-04-26T13:27:42.565Z,12216
2018-04-26T13:28:42.553Z,12704
2018-04-26T13:29:42.861Z,12504
2018-04-26T13:30:42.791Z,12292
2018-04-26T13:31:42.530Z,11936
2018-04-26T13:32:42.265Z,10804
2018-04-26T13:33:42.509Z,9800
2018-04-26T13:34:42.762Z,9244
2018-04-26T13:35:42.495Z,8944
2018-04-26T13:36:42.228Z,8928